sensor_id;sensor_type;location;lat;lon;timestamp;temperature;humidity
1277;DHT22;631;51.024;13.826;2023-10-09T00:01:45;11.70;99.90
1277;DHT22;631;51.024;13.826;2023-10-09T00:04:11;11.70;99.90
1277;DHT22;631;51.024;13.826;2023-10-09T00:06:39;11.80;99.90
1277;DHT22;631;51.024;13.826;2023-10-09T00:09:08;11.80;99.90
1277;DHT22;631;51.024;13.826;2023-10-09T00:11:56;11.90;1.00
1277;DHT22;631;51.024;13.826;2023-10-09T00:14:26;12.00;99.90
1277;DHT22;631;51.024;13.826;2023-10-09T00:16:56;11.90;1.00
1277;DHT22;631;51.024;13.826;2023-10-09T00:19:42;12.00;99.90
1277;DHT22;631;51.024;13.826;2023-10-09T00:22:09;12.00;1.00
1277;DHT22;631;51.024;13.826;2023-10-09T00:24:42;12.00;1.00
1277;DHT22;631;51.024;13.826;2023-10-09T00:27:11;12.00;99.90
1277;DHT22;631;51.024;13.826;2023-10-09T00:29:39;12.10;99.90
1277;DHT22;631;51.024;13.826;2023-10-09T00:32:13;12.10;99.90
1277;DHT22;631;51.024;13.826;2023-10-09T00:34:41;12.10;16.90
1277;DHT22;631;51.024;13.826;2023-10-09T00:37:08;12.10;1.00
1277;DHT22;631;51.024;13.826;2023-10-09T00:39:49;12.10;99.90
1277;DHT22;631;51.024;13.826;2023-10-09T00:42:21;12.10;99.90
1277;DHT22;631;51.024;13.826;2023-10-09T00:44:58;12.20;99.90
1277;DHT22;631;51.024;13.826;2023-10-09T00:47:35;12.10;99.00
1277;DHT22;631;51.024;13.826;2023-10-09T00:50:07;12.10;1.00
1277;DHT22;631;51.024;13.826;2023-10-09T00:52:50;12.10;1.00
1277;DHT22;631;51.024;13.826;2023-10-09T00:55:27;12.20;1.00
1277;DHT22;631;51.024;13.826;2023-10-09T00:58:03;12.10;1.00
1277;DHT22;631;51.024;13.826;2023-10-09T01:00:35;12.10;1.00
1277;DHT22;631;51.024;13.826;2023-10-09T01:03:16;12.00;99.90
1277;DHT22;631;51.024;13.826;2023-10-09T01:05:54;11.90;99.90
1277;DHT22;631;51.024;13.826;2023-10-09T01:08:26;12.00;1.00
1277;DHT22;631;51.024;13.826;2023-10-09T01:11:13;12.00;99.90
1277;DHT22;631;51.024;13.826;2023-10-09T01:13:47;12.00;99.90
1277;DHT22;631;51.024;13.826;2023-10-09T01:16:17;12.10;1.00
1277;DHT22;631;51.024;13.826;2023-10-09T01:18:46;12.10;99.90
1277;DHT22;631;51.024;13.826;2023-10-09T01:21:16;12.10;1.00
1277;DHT22;631;51.024;13.826;2023-10-09T01:23:43;12.10;99.90
1277;DHT22;631;51.024;13.826;2023-10-09T01:26:29;12.10;1.00
1277;DHT22;631;51.024;13.826;2023-10-09T01:29:00;12.10;93.80
1277;DHT22;631;51.024;13.826;2023-10-09T01:31:27;12.00;99.90
1277;DHT22;631;51.024;13.826;2023-10-09T01:33:59;12.00;99.90
1277;DHT22;631;51.024;13.826;2023-10-09T01:36:31;12.10;99.90
1277;DHT22;631;51.024;13.826;2023-10-09T01:39:01;12.00;99.90
1277;DHT22;631;51.024;13.826;2023-10-09T01:41:47;12.00;99.90
1277;DHT22;631;51.024;13.826;2023-10-09T01:44:14;12.00;99.90
1277;DHT22;631;51.024;13.826;2023-10-09T01:46:42;12.00;99.90
1277;DHT22;631;51.024;13.826;2023-10-09T01:49:08;12.10;1.00
1277;DHT22;631;51.024;13.826;2023-10-09T01:51:43;12.00;1.00
1277;DHT22;631;51.024;13.826;2023-10-09T01:54:09;12.10;1.00
1277;DHT22;631;51.024;13.826;2023-10-09T01:56:41;12.10;1.00
1277;DHT22;631;51.024;13.826;2023-10-09T01:59:11;12.10;1.00
1277;DHT22;631;51.024;13.826;2023-10-09T02:01:37;12.10;1.00
1277;DHT22;631;51.024;13.826;2023-10-09T02:04:06;12.10;1.00
1277;DHT22;631;51.024;13.826;2023-10-09T02:06:39;12.10;1.00
1277;DHT22;631;51.024;13.826;2023-10-09T02:09:05;12.10;1.00
1277;DHT22;631;51.024;13.826;2023-10-09T02:11:32;12.10;1.00
1277;DHT22;631;51.024;13.826;2023-10-09T02:14:08;12.10;1.00
1277;DHT22;631;51.024;13.826;2023-10-09T02:16:48;12.20;1.00
1277;DHT22;631;51.024;13.826;2023-10-09T02:19:33;12.10;1.00
1277;DHT22;631;51.024;13.826;2023-10-09T02:22:05;12.10;99.90
1277;DHT22;631;51.024;13.826;2023-10-09T02:24:41;12.20;99.90
1277;DHT22;631;51.024;13.826;2023-10-09T02:27:15;12.20;99.90
1277;DHT22;631;51.024;13.826;2023-10-09T02:29:59;12.10;99.90
1277;DHT22;631;51.024;13.826;2023-10-09T02:32:25;12.20;99.90
1277;DHT22;631;51.024;13.826;2023-10-09T02:34:51;12.20;99.90
1277;DHT22;631;51.024;13.826;2023-10-09T02:37:19;12.30;99.90
1277;DHT22;631;51.024;13.826;2023-10-09T02:39:51;12.30;99.90
1277;DHT22;631;51.024;13.826;2023-10-09T02:42:18;12.30;99.90
1277;DHT22;631;51.024;13.826;2023-10-09T02:44:52;12.30;99.90
1277;DHT22;631;51.024;13.826;2023-10-09T02:47:19;12.30;99.90
1277;DHT22;631;51.024;13.826;2023-10-09T02:49:55;12.40;99.90
1277;DHT22;631;51.024;13.826;2023-10-09T02:52:26;12.40;99.90
1277;DHT22;631;51.024;13.826;2023-10-09T02:54:58;12.40;99.90
1277;DHT22;631;51.024;13.826;2023-10-09T02:57:33;12.40;99.90
1277;DHT22;631;51.024;13.826;2023-10-09T03:00:06;12.50;1.00
1277;DHT22;631;51.024;13.826;2023-10-09T03:02:43;12.50;1.00
1277;DHT22;631;51.024;13.826;2023-10-09T03:05:09;12.50;1.00
1277;DHT22;631;51.024;13.826;2023-10-09T03:07:38;12.40;54.60
1277;DHT22;631;51.024;13.826;2023-10-09T03:10:06;12.50;99.90
1277;DHT22;631;51.024;13.826;2023-10-09T03:12:37;12.40;99.90
1277;DHT22;631;51.024;13.826;2023-10-09T03:15:05;12.40;1.00
1277;DHT22;631;51.024;13.826;2023-10-09T03:17:33;12.30;1.00
1277;DHT22;631;51.024;13.826;2023-10-09T03:20:06;12.20;1.00
1277;DHT22;631;51.024;13.826;2023-10-09T03:22:38;12.20;1.00
1277;DHT22;631;51.024;13.826;2023-10-09T03:25:05;12.20;1.00
1277;DHT22;631;51.024;13.826;2023-10-09T03:27:40;12.20;1.00
1277;DHT22;631;51.024;13.826;2023-10-09T03:30:15;12.00;1.00
1277;DHT22;631;51.024;13.826;2023-10-09T03:32:48;11.90;1.00
1277;DHT22;631;51.024;13.826;2023-10-09T03:35:23;11.90;99.90
1277;DHT22;631;51.024;13.826;2023-10-09T03:37:57;11.90;99.90
1277;DHT22;631;51.024;13.826;2023-10-09T03:40:25;11.90;99.90
1277;DHT22;631;51.024;13.826;2023-10-09T03:42:51;11.90;99.90
1277;DHT22;631;51.024;13.826;2023-10-09T03:45:18;11.80;99.90
1277;DHT22;631;51.024;13.826;2023-10-09T03:47:51;11.80;99.90
1277;DHT22;631;51.024;13.826;2023-10-09T03:50:21;11.90;99.90
1277;DHT22;631;51.024;13.826;2023-10-09T03:53:01;11.80;99.90
1277;DHT22;631;51.024;13.826;2023-10-09T03:55:28;11.90;99.90
1277;DHT22;631;51.024;13.826;2023-10-09T03:57:55;11.90;99.90
1277;DHT22;631;51.024;13.826;2023-10-09T04:00:23;12.00;99.90
1277;DHT22;631;51.024;13.826;2023-10-09T04:02:57;11.90;99.90
1277;DHT22;631;51.024;13.826;2023-10-09T04:05:23;11.90;99.90
1277;DHT22;631;51.024;13.826;2023-10-09T04:07:50;12.00;99.90
1277;DHT22;631;51.024;13.826;2023-10-09T04:10:18;12.00;99.90
1277;DHT22;631;51.024;13.826;2023-10-09T04:13:03;12.00;99.90
1277;DHT22;631;51.024;13.826;2023-10-09T04:15:28;12.00;99.90
1277;DHT22;631;51.024;13.826;2023-10-09T04:17:56;11.90;99.90
1277;DHT22;631;51.024;13.826;2023-10-09T04:20:22;11.90;99.90
1277;DHT22;631;51.024;13.826;2023-10-09T04:22:48;11.90;99.90
1277;DHT22;631;51.024;13.826;2023-10-09T04:25:20;11.90;99.90
1277;DHT22;631;51.024;13.826;2023-10-09T04:27:59;11.90;99.90
1277;DHT22;631;51.024;13.826;2023-10-09T04:30:36;11.80;99.90
1277;DHT22;631;51.024;13.826;2023-10-09T04:33:06;11.80;99.90
1277;DHT22;631;51.024;13.826;2023-10-09T04:35:37;11.70;99.90
1277;DHT22;631;51.024;13.826;2023-10-09T04:38:03;11.80;99.90
1277;DHT22;631;51.024;13.826;2023-10-09T04:40:31;11.80;99.90
1277;DHT22;631;51.024;13.826;2023-10-09T04:43:18;11.80;99.90
1277;DHT22;631;51.024;13.826;2023-10-09T04:45:49;11.80;99.90
1277;DHT22;631;51.024;13.826;2023-10-09T04:48:43;11.80;99.90
1277;DHT22;631;51.024;13.826;2023-10-09T04:51:11;11.80;99.90
1277;DHT22;631;51.024;13.826;2023-10-09T04:53:58;11.80;99.90
1277;DHT22;631;51.024;13.826;2023-10-09T04:56:40;11.80;99.90
1277;DHT22;631;51.024;13.826;2023-10-09T04:59:21;11.80;99.90
1277;DHT22;631;51.024;13.826;2023-10-09T05:01:53;11.80;99.90
1277;DHT22;631;51.024;13.826;2023-10-09T05:04:25;11.70;99.90
1277;DHT22;631;51.024;13.826;2023-10-09T05:07:03;11.70;99.90
1277;DHT22;631;51.024;13.826;2023-10-09T05:09:49;11.60;99.90
1277;DHT22;631;51.024;13.826;2023-10-09T05:12:33;11.60;99.90
1277;DHT22;631;51.024;13.826;2023-10-09T05:14:58;11.60;99.90
1277;DHT22;631;51.024;13.826;2023-10-09T05:17:35;11.60;99.90
1277;DHT22;631;51.024;13.826;2023-10-09T05:20:02;11.50;99.90
1277;DHT22;631;51.024;13.826;2023-10-09T05:22:46;11.50;99.90
1277;DHT22;631;51.024;13.826;2023-10-09T05:25:28;11.40;99.90
1277;DHT22;631;51.024;13.826;2023-10-09T05:28:12;11.30;99.90
1277;DHT22;631;51.024;13.826;2023-10-09T05:30:59;11.30;99.90
1277;DHT22;631;51.024;13.826;2023-10-09T05:33:36;11.20;99.90
1277;DHT22;631;51.024;13.826;2023-10-09T05:36:05;11.20;99.90
1277;DHT22;631;51.024;13.826;2023-10-09T05:38:51;11.10;99.90
1277;DHT22;631;51.024;13.826;2023-10-09T05:41:46;11.10;99.90
1277;DHT22;631;51.024;13.826;2023-10-09T05:44:18;11.10;99.90
1277;DHT22;631;51.024;13.826;2023-10-09T05:47:07;11.10;99.90
1277;DHT22;631;51.024;13.826;2023-10-09T05:49:54;11.10;99.90
1277;DHT22;631;51.024;13.826;2023-10-09T05:52:22;11.10;99.90
1277;DHT22;631;51.024;13.826;2023-10-09T05:55:06;11.00;99.90
1277;DHT22;631;51.024;13.826;2023-10-09T05:57:45;11.00;99.90
1277;DHT22;631;51.024;13.826;2023-10-09T06:00:29;11.00;99.90
1277;DHT22;631;51.024;13.826;2023-10-09T06:03:13;11.10;99.90
1277;DHT22;631;51.024;13.826;2023-10-09T06:05:50;11.00;99.90
1277;DHT22;631;51.024;13.826;2023-10-09T06:08:36;11.00;99.90
1277;DHT22;631;51.024;13.826;2023-10-09T06:11:12;11.00;99.90
1277;DHT22;631;51.024;13.826;2023-10-09T06:13:58;11.00;99.90
1277;DHT22;631;51.024;13.826;2023-10-09T06:16:42;11.00;99.90
1277;DHT22;631;51.024;13.826;2023-10-09T06:19:13;11.00;99.90
1277;DHT22;631;51.024;13.826;2023-10-09T06:21:44;11.00;99.90
1277;DHT22;631;51.024;13.826;2023-10-09T06:24:29;11.10;99.90
1277;DHT22;631;51.024;13.826;2023-10-09T06:27:15;11.10;99.90
1277;DHT22;631;51.024;13.826;2023-10-09T06:29:52;11.20;99.90
1277;DHT22;631;51.024;13.826;2023-10-09T06:32:39;11.20;99.90
1277;DHT22;631;51.024;13.826;2023-10-09T06:35:15;11.20;99.90
1277;DHT22;631;51.024;13.826;2023-10-09T06:37:57;11.20;99.90
1277;DHT22;631;51.024;13.826;2023-10-09T06:40:27;11.30;99.90
1277;DHT22;631;51.024;13.826;2023-10-09T06:43:11;11.20;99.90
1277;DHT22;631;51.024;13.826;2023-10-09T06:46:01;11.20;99.90
1277;DHT22;631;51.024;13.826;2023-10-09T06:48:45;11.30;99.90
1277;DHT22;631;51.024;13.826;2023-10-09T06:51:14;11.30;99.90
1277;DHT22;631;51.024;13.826;2023-10-09T06:53:52;11.30;99.90
1277;DHT22;631;51.024;13.826;2023-10-09T06:56:25;11.40;99.90
1277;DHT22;631;51.024;13.826;2023-10-09T06:58:57;11.40;99.90
1277;DHT22;631;51.024;13.826;2023-10-09T07:01:26;11.40;99.90
1277;DHT22;631;51.024;13.826;2023-10-09T07:04:05;11.40;99.90
1277;DHT22;631;51.024;13.826;2023-10-09T07:06:49;11.40;99.90
1277;DHT22;631;51.024;13.826;2023-10-09T07:09:17;11.40;99.90
1277;DHT22;631;51.024;13.826;2023-10-09T07:11:52;11.50;99.90
1277;DHT22;631;51.024;13.826;2023-10-09T07:14:22;11.50;99.90
1277;DHT22;631;51.024;13.826;2023-10-09T07:19:46;11.50;99.90
1277;DHT22;631;51.024;13.826;2023-10-09T07:22:13;11.50;99.90
1277;DHT22;631;51.024;13.826;2023-10-09T07:24:48;11.60;99.90
1277;DHT22;631;51.024;13.826;2023-10-09T07:27:24;11.70;99.90
1277;DHT22;631;51.024;13.826;2023-10-09T07:30:18;11.80;99.90
1277;DHT22;631;51.024;13.826;2023-10-09T07:32:53;11.80;99.90
1277;DHT22;631;51.024;13.826;2023-10-09T07:35:20;11.70;99.90
1277;DHT22;631;51.024;13.826;2023-10-09T07:38:05;11.80;99.90
1277;DHT22;631;51.024;13.826;2023-10-09T07:40:34;11.80;99.90
1277;DHT22;631;51.024;13.826;2023-10-09T07:43:17;11.90;99.90
1277;DHT22;631;51.024;13.826;2023-10-09T07:45:43;11.90;99.90
1277;DHT22;631;51.024;13.826;2023-10-09T07:48:15;11.90;99.90
1277;DHT22;631;51.024;13.826;2023-10-09T07:50:40;11.80;99.90
1277;DHT22;631;51.024;13.826;2023-10-09T07:53:09;11.90;99.90
1277;DHT22;631;51.024;13.826;2023-10-09T07:55:47;11.90;99.90
1277;DHT22;631;51.024;13.826;2023-10-09T07:58:32;11.90;99.90
1277;DHT22;631;51.024;13.826;2023-10-09T08:00:59;12.00;99.90
1277;DHT22;631;51.024;13.826;2023-10-09T08:03:41;11.90;99.90
1277;DHT22;631;51.024;13.826;2023-10-09T08:06:07;12.00;99.90
1277;DHT22;631;51.024;13.826;2023-10-09T08:08:52;12.00;99.90
1277;DHT22;631;51.024;13.826;2023-10-09T08:11:36;12.10;99.90
1277;DHT22;631;51.024;13.826;2023-10-09T08:14:12;12.20;99.90
1277;DHT22;631;51.024;13.826;2023-10-09T08:17:06;12.20;99.90
1277;DHT22;631;51.024;13.826;2023-10-09T08:19:51;12.20;99.90
1277;DHT22;631;51.024;13.826;2023-10-09T08:22:27;12.30;99.90
1277;DHT22;631;51.024;13.826;2023-10-09T08:24:56;12.30;99.90
1277;DHT22;631;51.024;13.826;2023-10-09T08:30:02;12.50;99.90
1277;DHT22;631;51.024;13.826;2023-10-09T08:32:57;12.60;99.90
1277;DHT22;631;51.024;13.826;2023-10-09T08:35:33;12.60;99.90
1277;DHT22;631;51.024;13.826;2023-10-09T08:38:02;12.70;99.90
1277;DHT22;631;51.024;13.826;2023-10-09T08:40:35;12.70;99.90
1277;DHT22;631;51.024;13.826;2023-10-09T08:45:38;12.70;99.90
1277;DHT22;631;51.024;13.826;2023-10-09T08:48:06;12.70;99.90
1277;DHT22;631;51.024;13.826;2023-10-09T08:50:33;12.80;99.90
1277;DHT22;631;51.024;13.826;2023-10-09T08:53:00;12.80;99.90
1277;DHT22;631;51.024;13.826;2023-10-09T08:55:28;12.80;99.90
1277;DHT22;631;51.024;13.826;2023-10-09T08:57:54;12.80;99.90
1277;DHT22;631;51.024;13.826;2023-10-09T09:00:23;12.90;99.90
1277;DHT22;631;51.024;13.826;2023-10-09T09:02:58;12.90;99.90
1277;DHT22;631;51.024;13.826;2023-10-09T09:05:25;12.90;99.90
1277;DHT22;631;51.024;13.826;2023-10-09T09:07:54;12.90;99.90
1277;DHT22;631;51.024;13.826;2023-10-09T09:10:30;12.90;99.90
1277;DHT22;631;51.024;13.826;2023-10-09T09:13:03;12.90;99.90
1277;DHT22;631;51.024;13.826;2023-10-09T09:15:32;13.00;99.90
1277;DHT22;631;51.024;13.826;2023-10-09T09:18:08;13.00;99.90
1277;DHT22;631;51.024;13.826;2023-10-09T09:20:37;13.00;99.90
1277;DHT22;631;51.024;13.826;2023-10-09T09:23:09;13.10;99.90
1277;DHT22;631;51.024;13.826;2023-10-09T09:25:44;13.10;99.90
1277;DHT22;631;51.024;13.826;2023-10-09T09:28:14;13.20;99.90
1277;DHT22;631;51.024;13.826;2023-10-09T09:30:47;13.30;99.90
1277;DHT22;631;51.024;13.826;2023-10-09T09:33:25;13.30;99.90
1277;DHT22;631;51.024;13.826;2023-10-09T09:36:06;13.30;99.90
1277;DHT22;631;51.024;13.826;2023-10-09T09:38:34;13.40;99.90
1277;DHT22;631;51.024;13.826;2023-10-09T09:41:19;13.40;99.90
1277;DHT22;631;51.024;13.826;2023-10-09T09:43:55;13.40;99.90
1277;DHT22;631;51.024;13.826;2023-10-09T09:46:32;13.40;99.90
1277;DHT22;631;51.024;13.826;2023-10-09T09:49:03;13.50;99.90
1277;DHT22;631;51.024;13.826;2023-10-09T09:51:31;13.50;99.90
1277;DHT22;631;51.024;13.826;2023-10-09T09:53:57;13.60;99.90
1277;DHT22;631;51.024;13.826;2023-10-09T09:56:26;13.70;99.90
1277;DHT22;631;51.024;13.826;2023-10-09T09:58:54;13.70;99.90
1277;DHT22;631;51.024;13.826;2023-10-09T10:01:25;13.80;99.90
1277;DHT22;631;51.024;13.826;2023-10-09T10:03:59;13.90;99.90
1277;DHT22;631;51.024;13.826;2023-10-09T10:06:25;14.00;99.90
1277;DHT22;631;51.024;13.826;2023-10-09T10:08:54;14.00;99.90
1277;DHT22;631;51.024;13.826;2023-10-09T10:14:10;14.30;99.90
1277;DHT22;631;51.024;13.826;2023-10-09T10:17:00;14.30;99.90
1277;DHT22;631;51.024;13.826;2023-10-09T10:22:46;14.50;99.90
1277;DHT22;631;51.024;13.826;2023-10-09T10:28:36;14.50;99.90
1277;DHT22;631;51.024;13.826;2023-10-09T10:31:08;14.50;99.90
1277;DHT22;631;51.024;13.826;2023-10-09T10:36:23;14.50;99.90
1277;DHT22;631;51.024;13.826;2023-10-09T10:39:08;14.50;99.90
1277;DHT22;631;51.024;13.826;2023-10-09T10:41:55;14.50;99.90
1277;DHT22;631;51.024;13.826;2023-10-09T10:44:31;14.50;99.90
1277;DHT22;631;51.024;13.826;2023-10-09T10:47:07;14.40;99.90
1277;DHT22;631;51.024;13.826;2023-10-09T10:49:48;14.50;99.90
1277;DHT22;631;51.024;13.826;2023-10-09T10:52:23;14.50;99.90
1277;DHT22;631;51.024;13.826;2023-10-09T10:55:10;14.50;99.90
1277;DHT22;631;51.024;13.826;2023-10-09T10:57:44;14.60;99.90
1277;DHT22;631;51.024;13.826;2023-10-09T11:00:19;14.60;99.90
1277;DHT22;631;51.024;13.826;2023-10-09T11:03:03;14.60;99.90
1277;DHT22;631;51.024;13.826;2023-10-09T11:05:49;14.60;99.90
1277;DHT22;631;51.024;13.826;2023-10-09T11:08:23;14.60;99.90
1277;DHT22;631;51.024;13.826;2023-10-09T11:10:50;14.70;99.90
1277;DHT22;631;51.024;13.826;2023-10-09T11:13:26;14.80;99.90
1277;DHT22;631;51.024;13.826;2023-10-09T11:16:18;14.80;99.90
1277;DHT22;631;51.024;13.826;2023-10-09T11:19:01;14.80;99.90
1277;DHT22;631;51.024;13.826;2023-10-09T11:21:38;14.80;99.90
1277;DHT22;631;51.024;13.826;2023-10-09T11:24:08;14.80;99.90
1277;DHT22;631;51.024;13.826;2023-10-09T11:26:50;14.80;99.90
1277;DHT22;631;51.024;13.826;2023-10-09T11:29:25;14.90;99.90
1277;DHT22;631;51.024;13.826;2023-10-09T11:32:14;14.90;99.90
1277;DHT22;631;51.024;13.826;2023-10-09T11:34:48;15.00;99.90
1277;DHT22;631;51.024;13.826;2023-10-09T11:37:22;15.00;99.90
1277;DHT22;631;51.024;13.826;2023-10-09T11:39:54;15.00;99.90
1277;DHT22;631;51.024;13.826;2023-10-09T11:42:26;15.00;99.90
1277;DHT22;631;51.024;13.826;2023-10-09T11:45:23;14.90;99.90
1277;DHT22;631;51.024;13.826;2023-10-09T11:47:50;15.00;99.90
1277;DHT22;631;51.024;13.826;2023-10-09T11:50:46;15.00;99.90
1277;DHT22;631;51.024;13.826;2023-10-09T11:53:14;15.00;99.90
1277;DHT22;631;51.024;13.826;2023-10-09T11:55:59;15.00;99.90
1277;DHT22;631;51.024;13.826;2023-10-09T11:58:25;15.00;99.90
1277;DHT22;631;51.024;13.826;2023-10-09T12:00:54;15.00;99.90
1277;DHT22;631;51.024;13.826;2023-10-09T12:03:30;15.00;99.90
1277;DHT22;631;51.024;13.826;2023-10-09T12:05:58;15.00;99.90
1277;DHT22;631;51.024;13.826;2023-10-09T12:08:30;15.00;99.90
1277;DHT22;631;51.024;13.826;2023-10-09T12:10:55;15.00;99.90
1277;DHT22;631;51.024;13.826;2023-10-09T12:13:22;15.10;99.90
1277;DHT22;631;51.024;13.826;2023-10-09T12:15:49;15.10;99.90
1277;DHT22;631;51.024;13.826;2023-10-09T12:18:17;15.10;99.90
1277;DHT22;631;51.024;13.826;2023-10-09T12:20:44;15.10;99.90
1277;DHT22;631;51.024;13.826;2023-10-09T12:23:20;15.10;99.90
1277;DHT22;631;51.024;13.826;2023-10-09T12:25:48;15.20;99.90
1277;DHT22;631;51.024;13.826;2023-10-09T12:28:15;15.30;99.90
1277;DHT22;631;51.024;13.826;2023-10-09T12:30:46;15.20;99.90
1277;DHT22;631;51.024;13.826;2023-10-09T12:33:17;15.20;99.90
1277;DHT22;631;51.024;13.826;2023-10-09T12:35:43;15.20;99.90
1277;DHT22;631;51.024;13.826;2023-10-09T12:38:11;15.10;99.90
1277;DHT22;631;51.024;13.826;2023-10-09T12:40:38;15.20;99.90
1277;DHT22;631;51.024;13.826;2023-10-09T12:43:06;15.10;99.90
1277;DHT22;631;51.024;13.826;2023-10-09T12:45:41;15.10;99.90
1277;DHT22;631;51.024;13.826;2023-10-09T12:48:07;15.10;99.90
1277;DHT22;631;51.024;13.826;2023-10-09T12:50:36;15.10;99.90
1277;DHT22;631;51.024;13.826;2023-10-09T12:53:07;15.10;99.90
1277;DHT22;631;51.024;13.826;2023-10-09T12:55:40;15.10;99.90
1277;DHT22;631;51.024;13.826;2023-10-09T12:58:10;15.10;99.90
1277;DHT22;631;51.024;13.826;2023-10-09T13:00:40;15.10;99.90
1277;DHT22;631;51.024;13.826;2023-10-09T13:03:11;15.00;99.90
1277;DHT22;631;51.024;13.826;2023-10-09T13:05:46;15.10;99.90
1277;DHT22;631;51.024;13.826;2023-10-09T13:08:24;15.10;99.90
1277;DHT22;631;51.024;13.826;2023-10-09T13:10:56;15.10;99.90
1277;DHT22;631;51.024;13.826;2023-10-09T13:13:29;15.20;99.90
1277;DHT22;631;51.024;13.826;2023-10-09T13:16:20;15.10;99.90
1277;DHT22;631;51.024;13.826;2023-10-09T13:18:56;15.20;99.90
1277;DHT22;631;51.024;13.826;2023-10-09T13:21:24;15.20;99.90
1277;DHT22;631;51.024;13.826;2023-10-09T13:23:58;15.20;99.90
1277;DHT22;631;51.024;13.826;2023-10-09T13:26:25;15.20;99.90
1277;DHT22;631;51.024;13.826;2023-10-09T13:28:54;15.20;99.90
1277;DHT22;631;51.024;13.826;2023-10-09T13:31:21;15.10;99.90
1277;DHT22;631;51.024;13.826;2023-10-09T13:33:48;15.10;99.90
1277;DHT22;631;51.024;13.826;2023-10-09T13:36:15;15.10;99.90
1277;DHT22;631;51.024;13.826;2023-10-09T13:39:03;15.10;99.90
1277;DHT22;631;51.024;13.826;2023-10-09T13:41:55;15.10;99.90
1277;DHT22;631;51.024;13.826;2023-10-09T13:44:28;15.00;99.90
1277;DHT22;631;51.024;13.826;2023-10-09T13:46:55;15.10;99.90
1277;DHT22;631;51.024;13.826;2023-10-09T13:49:21;15.10;99.90
1277;DHT22;631;51.024;13.826;2023-10-09T13:51:49;15.10;99.90
1277;DHT22;631;51.024;13.826;2023-10-09T13:54:16;15.10;99.90
1277;DHT22;631;51.024;13.826;2023-10-09T13:56:49;15.10;99.90
1277;DHT22;631;51.024;13.826;2023-10-09T13:59:21;15.10;99.90
1277;DHT22;631;51.024;13.826;2023-10-09T14:01:51;15.10;99.90
1277;DHT22;631;51.024;13.826;2023-10-09T14:04:21;15.10;99.90
1277;DHT22;631;51.024;13.826;2023-10-09T14:06:46;15.10;99.90
1277;DHT22;631;51.024;13.826;2023-10-09T14:09:23;15.10;99.90
1277;DHT22;631;51.024;13.826;2023-10-09T14:12:03;15.10;99.90
1277;DHT22;631;51.024;13.826;2023-10-09T14:14:36;15.10;99.90
1277;DHT22;631;51.024;13.826;2023-10-09T14:17:15;15.20;99.90
1277;DHT22;631;51.024;13.826;2023-10-09T14:19:47;15.20;99.90
1277;DHT22;631;51.024;13.826;2023-10-09T14:22:21;15.10;99.90
1277;DHT22;631;51.024;13.826;2023-10-09T14:24:49;15.10;99.90
1277;DHT22;631;51.024;13.826;2023-10-09T14:27:21;15.10;99.90
1277;DHT22;631;51.024;13.826;2023-10-09T14:29:51;15.10;99.90
1277;DHT22;631;51.024;13.826;2023-10-09T14:32:17;15.10;99.90
1277;DHT22;631;51.024;13.826;2023-10-09T14:34:43;15.10;99.90
1277;DHT22;631;51.024;13.826;2023-10-09T14:37:16;15.20;99.90
1277;DHT22;631;51.024;13.826;2023-10-09T14:39:43;15.20;99.90
1277;DHT22;631;51.024;13.826;2023-10-09T14:42:14;15.20;99.90
1277;DHT22;631;51.024;13.826;2023-10-09T14:44:40;15.20;99.90
1277;DHT22;631;51.024;13.826;2023-10-09T14:47:07;15.20;99.90
1277;DHT22;631;51.024;13.826;2023-10-09T14:49:34;15.20;99.90
1277;DHT22;631;51.024;13.826;2023-10-09T14:52:13;15.20;99.90
1277;DHT22;631;51.024;13.826;2023-10-09T14:54:45;15.20;99.90
1277;DHT22;631;51.024;13.826;2023-10-09T14:57:11;15.20;99.90
1277;DHT22;631;51.024;13.826;2023-10-09T14:59:38;15.20;99.90
1277;DHT22;631;51.024;13.826;2023-10-09T15:02:04;15.20;99.90
1277;DHT22;631;51.024;13.826;2023-10-09T15:04:33;15.20;99.90
1277;DHT22;631;51.024;13.826;2023-10-09T15:07:01;15.20;99.90
1277;DHT22;631;51.024;13.826;2023-10-09T15:09:27;15.20;99.90
1277;DHT22;631;51.024;13.826;2023-10-09T15:11:56;15.20;99.90
1277;DHT22;631;51.024;13.826;2023-10-09T15:14:23;15.20;99.90
1277;DHT22;631;51.024;13.826;2023-10-09T15:16:49;15.20;99.90
1277;DHT22;631;51.024;13.826;2023-10-09T15:19:15;15.20;99.90
1277;DHT22;631;51.024;13.826;2023-10-09T15:21:42;15.20;99.90
1277;DHT22;631;51.024;13.826;2023-10-09T15:24:11;15.20;99.90
1277;DHT22;631;51.024;13.826;2023-10-09T15:26:44;15.20;99.90
1277;DHT22;631;51.024;13.826;2023-10-09T15:29:17;15.10;99.90
1277;DHT22;631;51.024;13.826;2023-10-09T15:31:45;15.20;99.90
1277;DHT22;631;51.024;13.826;2023-10-09T15:34:12;15.10;99.90
1277;DHT22;631;51.024;13.826;2023-10-09T15:36:38;15.10;99.90
1277;DHT22;631;51.024;13.826;2023-10-09T15:39:05;15.10;99.90
1277;DHT22;631;51.024;13.826;2023-10-09T15:41:33;15.10;99.90
1277;DHT22;631;51.024;13.826;2023-10-09T15:44:00;15.10;99.90
1277;DHT22;631;51.024;13.826;2023-10-09T15:46:26;15.00;99.90
1277;DHT22;631;51.024;13.826;2023-10-09T15:48:53;15.00;99.90
1277;DHT22;631;51.024;13.826;2023-10-09T15:51:19;15.00;99.90
1277;DHT22;631;51.024;13.826;2023-10-09T15:53:46;15.00;99.90
1277;DHT22;631;51.024;13.826;2023-10-09T15:56:12;15.00;99.90
1277;DHT22;631;51.024;13.826;2023-10-09T15:58:42;15.00;99.90
1277;DHT22;631;51.024;13.826;2023-10-09T16:01:15;15.00;99.90
1277;DHT22;631;51.024;13.826;2023-10-09T16:03:44;15.00;99.90
1277;DHT22;631;51.024;13.826;2023-10-09T16:06:10;15.00;99.90
1277;DHT22;631;51.024;13.826;2023-10-09T16:08:42;14.90;99.90
1277;DHT22;631;51.024;13.826;2023-10-09T16:11:11;14.90;99.90
1277;DHT22;631;51.024;13.826;2023-10-09T16:13:38;14.90;99.90
1277;DHT22;631;51.024;13.826;2023-10-09T16:16:05;14.90;99.90
1277;DHT22;631;51.024;13.826;2023-10-09T16:18:34;14.90;99.90
1277;DHT22;631;51.024;13.826;2023-10-09T16:21:00;14.90;99.90
1277;DHT22;631;51.024;13.826;2023-10-09T16:23:30;14.90;99.90
1277;DHT22;631;51.024;13.826;2023-10-09T16:25:56;14.90;99.90
1277;DHT22;631;51.024;13.826;2023-10-09T16:28:22;14.90;99.90
1277;DHT22;631;51.024;13.826;2023-10-09T16:30:48;14.90;99.90
1277;DHT22;631;51.024;13.826;2023-10-09T16:33:14;14.90;99.90
1277;DHT22;631;51.024;13.826;2023-10-09T16:35:41;14.90;99.90
1277;DHT22;631;51.024;13.826;2023-10-09T16:38:10;14.80;99.90
1277;DHT22;631;51.024;13.826;2023-10-09T16:40:39;14.80;99.90
1277;DHT22;631;51.024;13.826;2023-10-09T16:43:05;14.90;99.90
1277;DHT22;631;51.024;13.826;2023-10-09T16:45:31;14.90;99.90
1277;DHT22;631;51.024;13.826;2023-10-09T16:48:01;14.90;99.90
1277;DHT22;631;51.024;13.826;2023-10-09T16:50:31;14.90;99.90
1277;DHT22;631;51.024;13.826;2023-10-09T16:52:57;14.90;99.90
1277;DHT22;631;51.024;13.826;2023-10-09T16:55:23;14.90;99.90
1277;DHT22;631;51.024;13.826;2023-10-09T16:57:50;14.90;99.90
1277;DHT22;631;51.024;13.826;2023-10-09T17:00:17;14.90;99.90